sensor_id;sensor_type;location;lat;lon;timestamp;temperature;humidity
18287;DHT22;9269;50.838;12.094;2023-11-22T00:00:07;6.20;59.10
18287;DHT22;9269;50.838;12.094;2023-11-22T00:02:36;6.30;59.00
18287;DHT22;9269;50.838;12.094;2023-11-22T00:05:07;6.10;59.10
18287;DHT22;9269;50.838;12.094;2023-11-22T00:07:37;6.20;59.20
18287;DHT22;9269;50.838;12.094;2023-11-22T00:10:06;6.20;58.50
18287;DHT22;9269;50.838;12.094;2023-11-22T00:12:37;6.00;58.60
18287;DHT22;9269;50.838;12.094;2023-11-22T00:15:08;6.10;58.90
18287;DHT22;9269;50.838;12.094;2023-11-22T00:17:39;6.20;58.50
18287;DHT22;9269;50.838;12.094;2023-11-22T00:20:08;6.20;58.60
18287;DHT22;9269;50.838;12.094;2023-11-22T00:22:37;6.00;58.10
18287;DHT22;9269;50.838;12.094;2023-11-22T00:25:06;6.00;58.10
18287;DHT22;9269;50.838;12.094;2023-11-22T00:27:37;5.90;57.50
18287;DHT22;9269;50.838;12.094;2023-11-22T00:30:07;5.90;58.20
18287;DHT22;9269;50.838;12.094;2023-11-22T00:32:37;5.80;58.20
18287;DHT22;9269;50.838;12.094;2023-11-22T00:35:09;6.00;57.80
18287;DHT22;9269;50.838;12.094;2023-11-22T00:37:38;6.00;57.40
18287;DHT22;9269;50.838;12.094;2023-11-22T00:40:07;5.80;57.50
18287;DHT22;9269;50.838;12.094;2023-11-22T00:42:41;5.80;57.30
18287;DHT22;9269;50.838;12.094;2023-11-22T00:45:10;5.90;57.50
18287;DHT22;9269;50.838;12.094;2023-11-22T00:47:39;6.00;56.90
18287;DHT22;9269;50.838;12.094;2023-11-22T00:50:09;5.80;57.30
18287;DHT22;9269;50.838;12.094;2023-11-22T00:52:37;5.90;57.20
18287;DHT22;9269;50.838;12.094;2023-11-22T00:55:07;5.70;57.00
18287;DHT22;9269;50.838;12.094;2023-11-22T00:57:35;5.90;56.90
18287;DHT22;9269;50.838;12.094;2023-11-22T01:00:06;5.80;56.40
18287;DHT22;9269;50.838;12.094;2023-11-22T01:02:37;5.60;56.90
18287;DHT22;9269;50.838;12.094;2023-11-22T01:05:07;5.80;56.70
18287;DHT22;9269;50.838;12.094;2023-11-22T01:07:39;5.80;57.00
18287;DHT22;9269;50.838;12.094;2023-11-22T01:10:09;5.70;57.00
18287;DHT22;9269;50.838;12.094;2023-11-22T01:12:39;5.80;57.40
18287;DHT22;9269;50.838;12.094;2023-11-22T01:15:09;5.80;57.00
18287;DHT22;9269;50.838;12.094;2023-11-22T01:17:38;5.80;56.80
18287;DHT22;9269;50.838;12.094;2023-11-22T01:20:07;5.70;56.70
18287;DHT22;9269;50.838;12.094;2023-11-22T01:22:37;5.70;56.90
18287;DHT22;9269;50.838;12.094;2023-11-22T01:25:06;5.90;56.90
18287;DHT22;9269;50.838;12.094;2023-11-22T01:27:38;5.80;56.50
18287;DHT22;9269;50.838;12.094;2023-11-22T01:30:10;5.70;56.40
18287;DHT22;9269;50.838;12.094;2023-11-22T01:32:39;5.80;56.60
18287;DHT22;9269;50.838;12.094;2023-11-22T01:35:08;5.70;56.70
18287;DHT22;9269;50.838;12.094;2023-11-22T01:37:36;5.80;56.50
18287;DHT22;9269;50.838;12.094;2023-11-22T01:40:07;5.70;56.20
18287;DHT22;9269;50.838;12.094;2023-11-22T01:42:37;5.80;56.20
18287;DHT22;9269;50.838;12.094;2023-11-22T01:45:08;5.80;56.10
18287;DHT22;9269;50.838;12.094;2023-11-22T01:47:38;5.60;56.20
18287;DHT22;9269;50.838;12.094;2023-11-22T01:50:08;5.70;56.20
18287;DHT22;9269;50.838;12.094;2023-11-22T01:52:38;5.60;56.20
18287;DHT22;9269;50.838;12.094;2023-11-22T01:55:08;5.90;56.40
18287;DHT22;9269;50.838;12.094;2023-11-22T01:57:37;5.70;56.50
18287;DHT22;9269;50.838;12.094;2023-11-22T02:00:08;5.90;56.30
18287;DHT22;9269;50.838;12.094;2023-11-22T02:02:43;5.70;55.80
18287;DHT22;9269;50.838;12.094;2023-11-22T02:05:12;5.60;56.00
18287;DHT22;9269;50.838;12.094;2023-11-22T02:07:41;5.70;55.90
18287;DHT22;9269;50.838;12.094;2023-11-22T02:10:12;5.60;56.10
18287;DHT22;9269;50.838;12.094;2023-11-22T02:12:40;5.70;56.00
18287;DHT22;9269;50.838;12.094;2023-11-22T02:15:11;5.60;55.80
18287;DHT22;9269;50.838;12.094;2023-11-22T02:17:56;5.60;55.90
18287;DHT22;9269;50.838;12.094;2023-11-22T02:20:38;5.60;56.20
18287;DHT22;9269;50.838;12.094;2023-11-22T02:23:11;5.30;56.20
18287;DHT22;9269;50.838;12.094;2023-11-22T02:25:43;5.30;56.10
18287;DHT22;9269;50.838;12.094;2023-11-22T02:28:13;5.50;55.90
18287;DHT22;9269;50.838;12.094;2023-11-22T02:30:43;5.40;55.60
18287;DHT22;9269;50.838;12.094;2023-11-22T02:33:12;5.00;55.60
18287;DHT22;9269;50.838;12.094;2023-11-22T02:35:43;5.30;55.80
18287;DHT22;9269;50.838;12.094;2023-11-22T02:38:13;5.20;55.50
18287;DHT22;9269;50.838;12.094;2023-11-22T02:40:42;5.30;55.70
18287;DHT22;9269;50.838;12.094;2023-11-22T02:43:11;5.40;55.30
18287;DHT22;9269;50.838;12.094;2023-11-22T02:45:39;5.20;55.20
18287;DHT22;9269;50.838;12.094;2023-11-22T02:48:11;5.20;55.00
18287;DHT22;9269;50.838;12.094;2023-11-22T02:50:45;5.10;55.00
18287;DHT22;9269;50.838;12.094;2023-11-22T02:53:15;5.10;54.60
18287;DHT22;9269;50.838;12.094;2023-11-22T02:55:44;5.10;54.80
18287;DHT22;9269;50.838;12.094;2023-11-22T02:58:12;4.80;54.70
18287;DHT22;9269;50.838;12.094;2023-11-22T03:00:41;5.00;54.90
18287;DHT22;9269;50.838;12.094;2023-11-22T03:03:10;5.10;54.40
18287;DHT22;9269;50.838;12.094;2023-11-22T03:05:40;5.00;54.00
18287;DHT22;9269;50.838;12.094;2023-11-22T03:08:08;5.10;53.90
18287;DHT22;9269;50.838;12.094;2023-11-22T03:10:39;5.00;53.90
18287;DHT22;9269;50.838;12.094;2023-11-22T03:13:07;4.90;54.10
18287;DHT22;9269;50.838;12.094;2023-11-22T03:15:37;5.00;54.00
18287;DHT22;9269;50.838;12.094;2023-11-22T03:18:05;5.00;53.80
18287;DHT22;9269;50.838;12.094;2023-11-22T03:20:34;5.10;53.60
18287;DHT22;9269;50.838;12.094;2023-11-22T03:23:05;5.10;53.90
18287;DHT22;9269;50.838;12.094;2023-11-22T03:25:33;5.20;53.80
18287;DHT22;9269;50.838;12.094;2023-11-22T03:28:04;5.30;53.80
18287;DHT22;9269;50.838;12.094;2023-11-22T03:30:33;5.20;53.40
18287;DHT22;9269;50.838;12.094;2023-11-22T03:33:06;5.20;53.40
18287;DHT22;9269;50.838;12.094;2023-11-22T03:35:35;5.10;53.50
18287;DHT22;9269;50.838;12.094;2023-11-22T03:38:04;5.00;53.40
18287;DHT22;9269;50.838;12.094;2023-11-22T03:40:33;4.90;53.20
18287;DHT22;9269;50.838;12.094;2023-11-22T03:43:01;5.00;53.50
18287;DHT22;9269;50.838;12.094;2023-11-22T03:45:31;5.00;53.10
18287;DHT22;9269;50.838;12.094;2023-11-22T03:48:00;4.90;53.10
18287;DHT22;9269;50.838;12.094;2023-11-22T03:50:28;4.90;53.20
18287;DHT22;9269;50.838;12.094;2023-11-22T03:52:57;5.10;53.50
18287;DHT22;9269;50.838;12.094;2023-11-22T03:55:25;4.90;53.30
18287;DHT22;9269;50.838;12.094;2023-11-22T03:57:54;5.10;53.20
18287;DHT22;9269;50.838;12.094;2023-11-22T04:00:22;5.10;53.30
18287;DHT22;9269;50.838;12.094;2023-11-22T04:02:53;5.00;53.40
18287;DHT22;9269;50.838;12.094;2023-11-22T04:05:24;5.20;53.00
18287;DHT22;9269;50.838;12.094;2023-11-22T04:07:53;5.10;53.20
18287;DHT22;9269;50.838;12.094;2023-11-22T04:10:21;5.20;53.50
18287;DHT22;9269;50.838;12.094;2023-11-22T04:12:50;5.10;53.30
18287;DHT22;9269;50.838;12.094;2023-11-22T04:15:19;5.00;53.20
18287;DHT22;9269;50.838;12.094;2023-11-22T04:17:48;5.10;53.40
18287;DHT22;9269;50.838;12.094;2023-11-22T04:20:19;5.20;53.10
18287;DHT22;9269;50.838;12.094;2023-11-22T04:22:48;5.00;52.80
18287;DHT22;9269;50.838;12.094;2023-11-22T04:25:18;4.80;52.90
18287;DHT22;9269;50.838;12.094;2023-11-22T04:27:46;5.00;53.50
18287;DHT22;9269;50.838;12.094;2023-11-22T04:30:15;4.90;53.10
18287;DHT22;9269;50.838;12.094;2023-11-22T04:32:44;5.00;52.70
18287;DHT22;9269;50.838;12.094;2023-11-22T04:35:14;5.00;53.10
18287;DHT22;9269;50.838;12.094;2023-11-22T04:37:44;4.90;52.80
18287;DHT22;9269;50.838;12.094;2023-11-22T04:40:14;4.60;53.00
18287;DHT22;9269;50.838;12.094;2023-11-22T04:42:42;4.70;52.80
18287;DHT22;9269;50.838;12.094;2023-11-22T04:45:12;4.80;53.00
18287;DHT22;9269;50.838;12.094;2023-11-22T04:47:40;4.60;53.10
18287;DHT22;9269;50.838;12.094;2023-11-22T04:50:10;4.50;52.90
18287;DHT22;9269;50.838;12.094;2023-11-22T04:52:39;4.70;53.10
18287;DHT22;9269;50.838;12.094;2023-11-22T04:55:10;4.60;53.00
18287;DHT22;9269;50.838;12.094;2023-11-22T04:57:41;4.50;53.20
18287;DHT22;9269;50.838;12.094;2023-11-22T05:00:11;4.40;53.10
18287;DHT22;9269;50.838;12.094;2023-11-22T05:02:41;4.40;53.20
18287;DHT22;9269;50.838;12.094;2023-11-22T05:05:10;4.30;52.90
18287;DHT22;9269;50.838;12.094;2023-11-22T05:07:38;4.40;53.00
18287;DHT22;9269;50.838;12.094;2023-11-22T05:10:08;4.40;53.20
18287;DHT22;9269;50.838;12.094;2023-11-22T05:12:38;4.30;53.40
18287;DHT22;9269;50.838;12.094;2023-11-22T05:15:08;4.30;53.30
18287;DHT22;9269;50.838;12.094;2023-11-22T05:17:36;4.10;53.10
18287;DHT22;9269;50.838;12.094;2023-11-22T05:20:07;4.20;53.40
18287;DHT22;9269;50.838;12.094;2023-11-22T05:22:38;4.30;53.40
18287;DHT22;9269;50.838;12.094;2023-11-22T05:25:08;4.10;53.50
18287;DHT22;9269;50.838;12.094;2023-11-22T05:27:37;4.40;53.10
18287;DHT22;9269;50.838;12.094;2023-11-22T05:30:07;4.30;53.30
18287;DHT22;9269;50.838;12.094;2023-11-22T05:32:38;4.20;53.40
18287;DHT22;9269;50.838;12.094;2023-11-22T05:35:07;4.00;53.30
18287;DHT22;9269;50.838;12.094;2023-11-22T05:37:37;4.10;53.50
18287;DHT22;9269;50.838;12.094;2023-11-22T05:40:07;4.20;53.10
18287;DHT22;9269;50.838;12.094;2023-11-22T05:42:38;4.10;53.40
18287;DHT22;9269;50.838;12.094;2023-11-22T05:45:08;4.20;53.10
18287;DHT22;9269;50.838;12.094;2023-11-22T05:47:37;4.20;53.20
18287;DHT22;9269;50.838;12.094;2023-11-22T05:50:07;4.10;53.30
18287;DHT22;9269;50.838;12.094;2023-11-22T05:52:36;4.30;53.30
18287;DHT22;9269;50.838;12.094;2023-11-22T05:55:08;4.20;53.00
18287;DHT22;9269;50.838;12.094;2023-11-22T05:57:58;4.20;52.80
18287;DHT22;9269;50.838;12.094;2023-11-22T06:00:26;4.00;52.80
18287;DHT22;9269;50.838;12.094;2023-11-22T06:02:56;4.10;52.90
18287;DHT22;9269;50.838;12.094;2023-11-22T06:05:25;4.20;52.80
18287;DHT22;9269;50.838;12.094;2023-11-22T06:07:54;4.20;52.80
18287;DHT22;9269;50.838;12.094;2023-11-22T06:10:25;4.10;53.10
18287;DHT22;9269;50.838;12.094;2023-11-22T06:12:54;4.00;52.80
18287;DHT22;9269;50.838;12.094;2023-11-22T06:15:25;4.10;52.40
18287;DHT22;9269;50.838;12.094;2023-11-22T06:18:01;4.00;52.60
18287;DHT22;9269;50.838;12.094;2023-11-22T06:20:30;4.10;52.90
18287;DHT22;9269;50.838;12.094;2023-11-22T06:22:59;3.90;52.60
18287;DHT22;9269;50.838;12.094;2023-11-22T06:25:28;4.00;52.50
18287;DHT22;9269;50.838;12.094;2023-11-22T06:27:56;4.00;52.50
18287;DHT22;9269;50.838;12.094;2023-11-22T06:30:29;4.10;52.80
18287;DHT22;9269;50.838;12.094;2023-11-22T06:32:58;4.10;52.60
18287;DHT22;9269;50.838;12.094;2023-11-22T06:35:26;4.20;52.20
18287;DHT22;9269;50.838;12.094;2023-11-22T06:37:55;4.10;52.70
18287;DHT22;9269;50.838;12.094;2023-11-22T06:40:23;4.10;52.70
18287;DHT22;9269;50.838;12.094;2023-11-22T06:42:52;4.00;52.10
18287;DHT22;9269;50.838;12.094;2023-11-22T06:45:20;3.90;52.50
18287;DHT22;9269;50.838;12.094;2023-11-22T06:47:50;4.10;52.20
18287;DHT22;9269;50.838;12.094;2023-11-22T06:50:20;3.90;52.20
18287;DHT22;9269;50.838;12.094;2023-11-22T06:52:49;4.10;52.20
18287;DHT22;9269;50.838;12.094;2023-11-22T06:55:20;4.00;52.20
18287;DHT22;9269;50.838;12.094;2023-11-22T06:57:48;4.00;52.10
18287;DHT22;9269;50.838;12.094;2023-11-22T07:00:17;4.10;52.60
18287;DHT22;9269;50.838;12.094;2023-11-22T07:02:47;4.20;52.50
18287;DHT22;9269;50.838;12.094;2023-11-22T07:05:17;4.00;52.30
18287;DHT22;9269;50.838;12.094;2023-11-22T07:07:46;4.10;52.30
18287;DHT22;9269;50.838;12.094;2023-11-22T07:10:15;4.00;52.20
18287;DHT22;9269;50.838;12.094;2023-11-22T07:12:52;4.00;52.20
18287;DHT22;9269;50.838;12.094;2023-11-22T07:15:21;4.00;52.40
18287;DHT22;9269;50.838;12.094;2023-11-22T07:17:51;3.80;52.50
18287;DHT22;9269;50.838;12.094;2023-11-22T07:20:21;4.10;52.30
18287;DHT22;9269;50.838;12.094;2023-11-22T07:22:51;4.10;52.10
18287;DHT22;9269;50.838;12.094;2023-11-22T07:25:24;4.20;52.10
18287;DHT22;9269;50.838;12.094;2023-11-22T07:27:54;4.10;52.30
18287;DHT22;9269;50.838;12.094;2023-11-22T07:30:24;4.10;52.30
18287;DHT22;9269;50.838;12.094;2023-11-22T07:32:57;4.10;52.00
18287;DHT22;9269;50.838;12.094;2023-11-22T07:35:34;4.10;51.90
18287;DHT22;9269;50.838;12.094;2023-11-22T07:38:05;4.40;52.40
18287;DHT22;9269;50.838;12.094;2023-11-22T07:40:35;4.20;52.10
18287;DHT22;9269;50.838;12.094;2023-11-22T07:43:04;4.20;52.10
18287;DHT22;9269;50.838;12.094;2023-11-22T07:45:34;4.20;52.00
18287;DHT22;9269;50.838;12.094;2023-11-22T07:48:04;4.00;52.10
18287;DHT22;9269;50.838;12.094;2023-11-22T07:50:34;4.20;52.00
18287;DHT22;9269;50.838;12.094;2023-11-22T07:53:03;4.40;52.10
18287;DHT22;9269;50.838;12.094;2023-11-22T07:55:32;4.40;52.00
18287;DHT22;9269;50.838;12.094;2023-11-22T07:58:02;4.30;52.00
18287;DHT22;9269;50.838;12.094;2023-11-22T08:00:34;4.30;52.00
18287;DHT22;9269;50.838;12.094;2023-11-22T08:03:04;4.30;52.10
18287;DHT22;9269;50.838;12.094;2023-11-22T08:05:35;4.20;52.20
18287;DHT22;9269;50.838;12.094;2023-11-22T08:08:07;4.50;52.10
18287;DHT22;9269;50.838;12.094;2023-11-22T08:10:39;4.30;51.90
18287;DHT22;9269;50.838;12.094;2023-11-22T08:13:27;4.20;52.00
18287;DHT22;9269;50.838;12.094;2023-11-22T08:15:57;4.30;52.10
18287;DHT22;9269;50.838;12.094;2023-11-22T08:18:26;4.30;52.10
18287;DHT22;9269;50.838;12.094;2023-11-22T08:20:56;4.30;52.10
18287;DHT22;9269;50.838;12.094;2023-11-22T08:23:26;4.20;52.10
18287;DHT22;9269;50.838;12.094;2023-11-22T08:25:54;4.50;52.20
18287;DHT22;9269;50.838;12.094;2023-11-22T08:28:24;4.50;52.40
18287;DHT22;9269;50.838;12.094;2023-11-22T08:30:53;4.20;52.10
18287;DHT22;9269;50.838;12.094;2023-11-22T08:33:21;4.40;52.20
18287;DHT22;9269;50.838;12.094;2023-11-22T08:35:50;4.30;52.30
18287;DHT22;9269;50.838;12.094;2023-11-22T08:38:26;4.20;52.10
18287;DHT22;9269;50.838;12.094;2023-11-22T08:40:55;4.40;52.10
18287;DHT22;9269;50.838;12.094;2023-11-22T08:43:24;4.30;52.20
18287;DHT22;9269;50.838;12.094;2023-11-22T08:45:53;4.50;52.40
18287;DHT22;9269;50.838;12.094;2023-11-22T08:48:38;4.20;52.40
18287;DHT22;9269;50.838;12.094;2023-11-22T08:51:08;4.40;52.30
18287;DHT22;9269;50.838;12.094;2023-11-22T08:53:39;4.40;52.50
18287;DHT22;9269;50.838;12.094;2023-11-22T08:56:08;4.40;52.40
18287;DHT22;9269;50.838;12.094;2023-11-22T08:58:37;4.40;52.30
18287;DHT22;9269;50.838;12.094;2023-11-22T09:01:06;4.40;52.30
18287;DHT22;9269;50.838;12.094;2023-11-22T09:03:35;4.40;52.30
18287;DHT22;9269;50.838;12.094;2023-11-22T09:06:05;4.60;52.10
18287;DHT22;9269;50.838;12.094;2023-11-22T09:08:35;4.60;51.90
18287;DHT22;9269;50.838;12.094;2023-11-22T09:11:05;4.60;51.60
18287;DHT22;9269;50.838;12.094;2023-11-22T09:13:34;4.60;51.90
18287;DHT22;9269;50.838;12.094;2023-11-22T09:16:04;4.60;51.90
18287;DHT22;9269;50.838;12.094;2023-11-22T09:18:34;4.50;51.70
18287;DHT22;9269;50.838;12.094;2023-11-22T09:21:03;4.70;51.70
18287;DHT22;9269;50.838;12.094;2023-11-22T09:23:32;4.70;52.00
18287;DHT22;9269;50.838;12.094;2023-11-22T09:26:01;4.70;51.70
18287;DHT22;9269;50.838;12.094;2023-11-22T09:28:31;4.90;51.80
18287;DHT22;9269;50.838;12.094;2023-11-22T09:30:59;4.70;52.00
18287;DHT22;9269;50.838;12.094;2023-11-22T09:33:33;4.80;52.10
18287;DHT22;9269;50.838;12.094;2023-11-22T09:36:02;4.70;52.00
18287;DHT22;9269;50.838;12.094;2023-11-22T09:38:36;4.60;51.90
18287;DHT22;9269;50.838;12.094;2023-11-22T09:41:06;4.90;52.00
18287;DHT22;9269;50.838;12.094;2023-11-22T09:43:38;4.70;52.10
18287;DHT22;9269;50.838;12.094;2023-11-22T09:46:08;4.90;52.00
18287;DHT22;9269;50.838;12.094;2023-11-22T09:48:39;4.80;52.20
18287;DHT22;9269;50.838;12.094;2023-11-22T09:51:12;4.80;51.80
18287;DHT22;9269;50.838;12.094;2023-11-22T09:53:52;5.00;52.00
18287;DHT22;9269;50.838;12.094;2023-11-22T09:56:20;4.90;51.90
18287;DHT22;9269;50.838;12.094;2023-11-22T09:58:53;5.00;52.30
18287;DHT22;9269;50.838;12.094;2023-11-22T10:01:23;4.90;52.00
18287;DHT22;9269;50.838;12.094;2023-11-22T10:03:52;4.80;51.80
18287;DHT22;9269;50.838;12.094;2023-11-22T10:06:21;4.70;51.80
18287;DHT22;9269;50.838;12.094;2023-11-22T10:08:51;5.00;51.70
18287;DHT22;9269;50.838;12.094;2023-11-22T10:11:21;4.90;51.60
18287;DHT22;9269;50.838;12.094;2023-11-22T10:13:50;4.80;51.70
18287;DHT22;9269;50.838;12.094;2023-11-22T10:16:19;4.90;51.70
18287;DHT22;9269;50.838;12.094;2023-11-22T10:18:49;4.80;51.60
18287;DHT22;9269;50.838;12.094;2023-11-22T10:21:22;5.00;51.70
18287;DHT22;9269;50.838;12.094;2023-11-22T10:23:53;5.10;51.60
18287;DHT22;9269;50.838;12.094;2023-11-22T10:26:23;5.20;51.40
18287;DHT22;9269;50.838;12.094;2023-11-22T10:28:55;5.00;51.40
18287;DHT22;9269;50.838;12.094;2023-11-22T10:31:24;5.10;51.50
18287;DHT22;9269;50.838;12.094;2023-11-22T10:33:54;5.00;51.60
18287;DHT22;9269;50.838;12.094;2023-11-22T10:36:25;5.10;51.80
18287;DHT22;9269;50.838;12.094;2023-11-22T10:38:54;5.00;51.40
18287;DHT22;9269;50.838;12.094;2023-11-22T10:41:23;5.10;51.50
18287;DHT22;9269;50.838;12.094;2023-11-22T10:43:53;5.20;51.60
18287;DHT22;9269;50.838;12.094;2023-11-22T10:46:27;5.30;51.30
18287;DHT22;9269;50.838;12.094;2023-11-22T10:48:57;5.20;51.60
18287;DHT22;9269;50.838;12.094;2023-11-22T10:51:30;5.00;51.50
18287;DHT22;9269;50.838;12.094;2023-11-22T10:54:00;5.20;51.60
18287;DHT22;9269;50.838;12.094;2023-11-22T10:56:36;5.20;51.90
18287;DHT22;9269;50.838;12.094;2023-11-22T10:59:10;5.10;51.80
18287;DHT22;9269;50.838;12.094;2023-11-22T11:01:44;5.20;52.00
18287;DHT22;9269;50.838;12.094;2023-11-22T11:04:23;5.30;51.60
18287;DHT22;9269;50.838;12.094;2023-11-22T11:06:54;5.30;51.70
18287;DHT22;9269;50.838;12.094;2023-11-22T11:09:25;5.30;52.10
18287;DHT22;9269;50.838;12.094;2023-11-22T11:11:59;5.20;52.00
18287;DHT22;9269;50.838;12.094;2023-11-22T11:14:36;5.20;51.90
18287;DHT22;9269;50.838;12.094;2023-11-22T11:17:07;5.30;52.00
18287;DHT22;9269;50.838;12.094;2023-11-22T11:19:37;5.10;52.00
18287;DHT22;9269;50.838;12.094;2023-11-22T11:22:08;5.20;52.10
18287;DHT22;9269;50.838;12.094;2023-11-22T11:24:39;5.10;52.20
18287;DHT22;9269;50.838;12.094;2023-11-22T11:27:09;5.00;52.40
18287;DHT22;9269;50.838;12.094;2023-11-22T11:29:39;5.20;52.50
18287;DHT22;9269;50.838;12.094;2023-11-22T11:32:11;5.40;52.30
18287;DHT22;9269;50.838;12.094;2023-11-22T11:34:47;5.20;52.20
18287;DHT22;9269;50.838;12.094;2023-11-22T11:37:19;5.30;52.40
18287;DHT22;9269;50.838;12.094;2023-11-22T11:39:48;5.30;52.50
18287;DHT22;9269;50.838;12.094;2023-11-22T11:42:16;5.10;52.20
18287;DHT22;9269;50.838;12.094;2023-11-22T11:45:03;5.30;52.20
18287;DHT22;9269;50.838;12.094;2023-11-22T11:47:33;5.10;52.20
18287;DHT22;9269;50.838;12.094;2023-11-22T11:50:02;5.20;52.30
18287;DHT22;9269;50.838;12.094;2023-11-22T11:52:51;5.10;52.80
18287;DHT22;9269;50.838;12.094;2023-11-22T11:55:40;5.30;52.40
18287;DHT22;9269;50.838;12.094;2023-11-22T11:58:13;5.20;52.20
18287;DHT22;9269;50.838;12.094;2023-11-22T12:00:46;5.20;52.40
18287;DHT22;9269;50.838;12.094;2023-11-22T12:03:14;5.40;52.40
18287;DHT22;9269;50.838;12.094;2023-11-22T12:05:49;5.40;52.30
18287;DHT22;9269;50.838;12.094;2023-11-22T12:08:21;5.30;52.40
18287;DHT22;9269;50.838;12.094;2023-11-22T12:10:50;5.30;52.60
18287;DHT22;9269;50.838;12.094;2023-11-22T12:13:20;5.30;52.10
18287;DHT22;9269;50.838;12.094;2023-11-22T12:15:51;5.30;52.40
18287;DHT22;9269;50.838;12.094;2023-11-22T12:18:20;5.20;52.30
18287;DHT22;9269;50.838;12.094;2023-11-22T12:20:56;5.40;52.30
18287;DHT22;9269;50.838;12.094;2023-11-22T12:23:27;5.40;52.50
18287;DHT22;9269;50.838;12.094;2023-11-22T12:25:56;5.30;52.50
18287;DHT22;9269;50.838;12.094;2023-11-22T12:28:27;5.20;52.20
18287;DHT22;9269;50.838;12.094;2023-11-22T12:31:06;5.20;52.40
18287;DHT22;9269;50.838;12.094;2023-11-22T12:33:36;5.30;52.10
18287;DHT22;9269;50.838;12.094;2023-11-22T12:36:08;5.30;52.00
18287;DHT22;9269;50.838;12.094;2023-11-22T12:38:37;5.20;52.20
18287;DHT22;9269;50.838;12.094;2023-11-22T12:41:06;5.40;52.30
18287;DHT22;9269;50.838;12.094;2023-11-22T12:43:35;5.30;52.10
18287;DHT22;9269;50.838;12.094;2023-11-22T12:46:18;5.30;52.30
18287;DHT22;9269;50.838;12.094;2023-11-22T12:48:46;5.50;52.50
18287;DHT22;9269;50.838;12.094;2023-11-22T12:51:15;5.40;52.20
18287;DHT22;9269;50.838;12.094;2023-11-22T12:53:45;5.40;52.20
18287;DHT22;9269;50.838;12.094;2023-11-22T12:56:15;5.30;52.00
18287;DHT22;9269;50.838;12.094;2023-11-22T12:58:45;5.50;52.30
18287;DHT22;9269;50.838;12.094;2023-11-22T13:01:13;5.40;52.50
18287;DHT22;9269;50.838;12.094;2023-11-22T13:03:43;5.60;52.80
18287;DHT22;9269;50.838;12.094;2023-11-22T13:06:11;5.50;52.20
18287;DHT22;9269;50.838;12.094;2023-11-22T13:08:40;5.50;52.40
18287;DHT22;9269;50.838;12.094;2023-11-22T13:11:09;5.30;52.40
18287;DHT22;9269;50.838;12.094;2023-11-22T13:13:37;5.40;52.00
18287;DHT22;9269;50.838;12.094;2023-11-22T13:16:06;5.20;52.30
18287;DHT22;9269;50.838;12.094;2023-11-22T13:18:35;5.30;52.40
18287;DHT22;9269;50.838;12.094;2023-11-22T13:21:06;5.30;52.30
18287;DHT22;9269;50.838;12.094;2023-11-22T13:23:35;5.00;52.60
18287;DHT22;9269;50.838;12.094;2023-11-22T13:26:05;5.20;52.50
18287;DHT22;9269;50.838;12.094;2023-11-22T13:28:37;5.40;52.70
18287;DHT22;9269;50.838;12.094;2023-11-22T13:31:05;5.20;52.60
18287;DHT22;9269;50.838;12.094;2023-11-22T13:33:34;5.30;52.80
18287;DHT22;9269;50.838;12.094;2023-11-22T13:36:06;5.30;52.50
18287;DHT22;9269;50.838;12.094;2023-11-22T13:38:35;5.40;52.30
18287;DHT22;9269;50.838;12.094;2023-11-22T13:41:04;5.30;52.60
18287;DHT22;9269;50.838;12.094;2023-11-22T13:43:32;5.30;52.50
18287;DHT22;9269;50.838;12.094;2023-11-22T13:46:02;5.30;52.40
18287;DHT22;9269;50.838;12.094;2023-11-22T13:48:32;5.40;52.80
18287;DHT22;9269;50.838;12.094;2023-11-22T13:51:00;5.30;52.20
18287;DHT22;9269;50.838;12.094;2023-11-22T13:53:35;5.30;52.60
18287;DHT22;9269;50.838;12.094;2023-11-22T13:56:08;5.40;52.60
18287;DHT22;9269;50.838;12.094;2023-11-22T13:58:36;5.30;52.50
18287;DHT22;9269;50.838;12.094;2023-11-22T14:01:05;5.30;52.20
18287;DHT22;9269;50.838;12.094;2023-11-22T14:03:39;5.50;52.30
18287;DHT22;9269;50.838;12.094;2023-11-22T14:06:07;5.40;52.30
18287;DHT22;9269;50.838;12.094;2023-11-22T14:08:38;5.40;52.60
18287;DHT22;9269;50.838;12.094;2023-11-22T14:11:07;5.10;52.40
18287;DHT22;9269;50.838;12.094;2023-11-22T14:13:38;5.30;52.10
18287;DHT22;9269;50.838;12.094;2023-11-22T14:16:08;5.30;52.20
18287;DHT22;9269;50.838;12.094;2023-11-22T14:18:37;5.30;52.20
18287;DHT22;9269;50.838;12.094;2023-11-22T14:21:06;5.20;52.70
18287;DHT22;9269;50.838;12.094;2023-11-22T14:23:35;5.30;52.60
18287;DHT22;9269;50.838;12.094;2023-11-22T14:26:05;5.20;52.50
18287;DHT22;9269;50.838;12.094;2023-11-22T14:28:34;5.40;52.50
18287;DHT22;9269;50.838;12.094;2023-11-22T14:31:03;5.10;52.20
18287;DHT22;9269;50.838;12.094;2023-11-22T14:33:34;5.40;52.50
18287;DHT22;9269;50.838;12.094;2023-11-22T14:36:03;5.30;52.40
18287;DHT22;9269;50.838;12.094;2023-11-22T14:38:31;5.20;52.30
18287;DHT22;9269;50.838;12.094;2023-11-22T14:41:00;5.10;52.30
18287;DHT22;9269;50.838;12.094;2023-11-22T14:43:32;5.20;52.20
18287;DHT22;9269;50.838;12.094;2023-11-22T14:46:02;5.40;52.50
18287;DHT22;9269;50.838;12.094;2023-11-22T14:48:33;5.20;52.20
18287;DHT22;9269;50.838;12.094;2023-11-22T14:51:02;5.10;52.70
18287;DHT22;9269;50.838;12.094;2023-11-22T14:53:32;5.30;52.50
18287;DHT22;9269;50.838;12.094;2023-11-22T14:56:01;5.20;52.30
18287;DHT22;9269;50.838;12.094;2023-11-22T14:58:32;5.30;52.60
18287;DHT22;9269;50.838;12.094;2023-11-22T15:01:02;5.10;52.60
18287;DHT22;9269;50.838;12.094;2023-11-22T15:03:34;5.10;52.50
18287;DHT22;9269;50.838;12.094;2023-11-22T15:06:03;5.00;52.40
18287;DHT22;9269;50.838;12.094;2023-11-22T15:08:33;5.20;52.60
18287;DHT22;9269;50.838;12.094;2023-11-22T15:11:01;5.00;52.70
18287;DHT22;9269;50.838;12.094;2023-11-22T15:13:32;5.00;52.50
18287;DHT22;9269;50.838;12.094;2023-11-22T15:16:03;5.00;52.70
18287;DHT22;9269;50.838;12.094;2023-11-22T15:18:33;5.10;52.50
18287;DHT22;9269;50.838;12.094;2023-11-22T15:21:02;5.20;52.60
18287;DHT22;9269;50.838;12.094;2023-11-22T15:23:31;5.00;52.50
18287;DHT22;9269;50.838;12.094;2023-11-22T15:26:00;5.10;52.20
18287;DHT22;9269;50.838;12.094;2023-11-22T15:28:28;5.10;52.40
18287;DHT22;9269;50.838;12.094;2023-11-22T15:30:59;5.20;52.30
18287;DHT22;9269;50.838;12.094;2023-11-22T15:33:28;5.20;52.50
18287;DHT22;9269;50.838;12.094;2023-11-22T15:35:57;5.10;52.30
18287;DHT22;9269;50.838;12.094;2023-11-22T15:38:25;5.00;52.40
18287;DHT22;9269;50.838;12.094;2023-11-22T15:40:54;5.10;52.70
18287;DHT22;9269;50.838;12.094;2023-11-22T15:43:38;5.10;52.10
18287;DHT22;9269;50.838;12.094;2023-11-22T15:46:10;5.00;52.50
18287;DHT22;9269;50.838;12.094;2023-11-22T15:48:40;5.00;52.50
18287;DHT22;9269;50.838;12.094;2023-11-22T15:51:09;5.00;52.60
18287;DHT22;9269;50.838;12.094;2023-11-22T15:53:38;5.00;52.60
18287;DHT22;9269;50.838;12.094;2023-11-22T15:56:08;5.00;52.60
18287;DHT22;9269;50.838;12.094;2023-11-22T15:58:42;5.10;52.50
18287;DHT22;9269;50.838;12.094;2023-11-22T16:01:13;5.20;52.50
18287;DHT22;9269;50.838;12.094;2023-11-22T16:03:41;5.10;52.50